Terminal Aerodrome Forecast
Issued by NWS

Home | Current Version | Previous Version | Text Only | Print | Product List | Glossary On
Versions: 1 2 3 4 5 6 7 8 9 10 11 12 13 14 15 16 17 18 19 20 21 22 23 24 25 26 27 28 29 30 31 32 33 34
000
FTUS45 KBOI 081204 RRA
TAFJER
TAF
KJER 081204Z 0812/0912 05022KT P6SM SCT250
     FM081600 05023KT P6SM BKN050 OVC100
     FM082000 05020G30KT 3SM -SHSN OVC015
     FM082100 05018G28KT 3/4SM -SN OVC007
     FM090500 04013KT P6SM VCSH OVC020=

USA.gov is the U.S. government's official web portal to all federal, state and local government web resources and services.